sim
Sign-in with your pilot id or email,
or register
Callsign
Passwort

Schedule Details

Flight Number: DLH2437
Departure: Copenhagen Airport (EKCH) at 09:15
Arrival: Munich Airport (EDDM) at 10:50
Route: Lufthansa Passenger Schedule. Enter filed route here before submitting Pirep.

Weather Information
Getting current METAR information for EKCH 202120Z 04005KT 010V070 9999 MIFG FEW009 BKN011 14/13 Q1021 TEMPO BKN006
Getting current METAR information for EDDM 202120Z VRB01KT CAVOK 11/10 Q1016 NOSIG

Schedule Frequency

Route Map